sensor_id;sensor_type;location;lat;lon;timestamp;P1;durP1;ratioP1;P2;durP2;ratioP2
59474;SDS011;45288;51.136;16.928;2023-07-29T00:00:38;796.75;;;733.28;;
59474;SDS011;45288;51.136;16.928;2023-07-29T00:03:04;1141.13;;;999.90;;
59474;SDS011;45288;51.136;16.928;2023-07-29T00:05:31;996.92;;;918.90;;
59474;SDS011;45288;51.136;16.928;2023-07-29T00:07:56;184.63;;;170.73;;
59474;SDS011;45288;51.136;16.928;2023-07-29T00:10:22;145.40;;;134.45;;
59474;SDS011;45288;51.136;16.928;2023-07-29T00:12:48;199.18;;;183.40;;
59474;SDS011;45288;51.136;16.928;2023-07-29T00:15:13;192.60;;;178.07;;
59474;SDS011;45288;51.136;16.928;2023-07-29T00:17:39;229.02;;;211.23;;
59474;SDS011;45288;51.136;16.928;2023-07-29T00:20:05;214.80;;;198.73;;
59474;SDS011;45288;51.136;16.928;2023-07-29T00:22:31;207.70;;;191.93;;
59474;SDS011;45288;51.136;16.928;2023-07-29T00:24:57;207.55;;;191.82;;
59474;SDS011;45288;51.136;16.928;2023-07-29T00:27:24;232.87;;;215.17;;
59474;SDS011;45288;51.136;16.928;2023-07-29T00:29:50;253.82;;;233.80;;
59474;SDS011;45288;51.136;16.928;2023-07-29T00:32:16;262.57;;;242.80;;
59474;SDS011;45288;51.136;16.928;2023-07-29T00:34:44;260.52;;;240.15;;
59474;SDS011;45288;51.136;16.928;2023-07-29T00:37:10;268.48;;;247.63;;
59474;SDS011;45288;51.136;16.928;2023-07-29T00:39:37;263.17;;;242.40;;
59474;SDS011;45288;51.136;16.928;2023-07-29T00:42:03;264.57;;;244.23;;
59474;SDS011;45288;51.136;16.928;2023-07-29T00:44:29;287.90;;;265.65;;
59474;SDS011;45288;51.136;16.928;2023-07-29T00:47:00;314.33;;;289.50;;
59474;SDS011;45288;51.136;16.928;2023-07-29T00:49:27;300.35;;;275.92;;
59474;SDS011;45288;51.136;16.928;2023-07-29T00:51:53;260.17;;;239.57;;
59474;SDS011;45288;51.136;16.928;2023-07-29T00:54:19;315.80;;;290.65;;
59474;SDS011;45288;51.136;16.928;2023-07-29T00:56:45;366.70;;;336.55;;
59474;SDS011;45288;51.136;16.928;2023-07-29T00:59:11;355.92;;;327.10;;
59474;SDS011;45288;51.136;16.928;2023-07-29T01:01:37;371.67;;;341.55;;
59474;SDS011;45288;51.136;16.928;2023-07-29T01:04:03;397.70;;;365.15;;
59474;SDS011;45288;51.136;16.928;2023-07-29T01:06:57;336.53;;;309.53;;
59474;SDS011;45288;51.136;16.928;2023-07-29T01:09:28;365.73;;;337.13;;
59474;SDS011;45288;51.136;16.928;2023-07-29T01:12:11;290.35;;;268.25;;
59474;SDS011;45288;51.136;16.928;2023-07-29T01:17:07;312.75;;;289.40;;
59474;SDS011;45288;51.136;16.928;2023-07-29T01:22:10;284.45;;;263.00;;
59474;SDS011;45288;51.136;16.928;2023-07-29T01:24:36;292.02;;;269.33;;
59474;SDS011;45288;51.136;16.928;2023-07-29T01:27:02;282.83;;;261.07;;
59474;SDS011;45288;51.136;16.928;2023-07-29T01:29:30;270.02;;;250.05;;
59474;SDS011;45288;51.136;16.928;2023-07-29T01:31:56;220.50;;;203.63;;
59474;SDS011;45288;51.136;16.928;2023-07-29T01:34:26;226.35;;;209.55;;
59474;SDS011;45288;51.136;16.928;2023-07-29T01:36:54;243.20;;;224.45;;
59474;SDS011;45288;51.136;16.928;2023-07-29T01:39:22;251.48;;;232.68;;
59474;SDS011;45288;51.136;16.928;2023-07-29T01:41:49;291.27;;;268.77;;
59474;SDS011;45288;51.136;16.928;2023-07-29T01:44:16;286.77;;;265.20;;
59474;SDS011;45288;51.136;16.928;2023-07-29T01:46:43;282.25;;;260.10;;
59474;SDS011;45288;51.136;16.928;2023-07-29T01:49:09;308.03;;;284.40;;
59474;SDS011;45288;51.136;16.928;2023-07-29T01:51:35;320.90;;;296.95;;
59474;SDS011;45288;51.136;16.928;2023-07-29T01:54:01;587.20;;;539.13;;
59474;SDS011;45288;51.136;16.928;2023-07-29T01:56:26;563.45;;;517.92;;
59474;SDS011;45288;51.136;16.928;2023-07-29T01:58:54;559.43;;;513.90;;
59474;SDS011;45288;51.136;16.928;2023-07-29T02:01:20;498.13;;;458.55;;
59474;SDS011;45288;51.136;16.928;2023-07-29T02:03:46;876.43;;;807.43;;
59474;SDS011;45288;51.136;16.928;2023-07-29T02:06:12;821.15;;;756.25;;
59474;SDS011;45288;51.136;16.928;2023-07-29T02:08:38;676.47;;;621.83;;
59474;SDS011;45288;51.136;16.928;2023-07-29T02:11:06;772.90;;;711.47;;
59474;SDS011;45288;51.136;16.928;2023-07-29T02:13:32;741.10;;;681.70;;
59474;SDS011;45288;51.136;16.928;2023-07-29T02:15:57;763.40;;;702.80;;
59474;SDS011;45288;51.136;16.928;2023-07-29T02:18:23;836.75;;;770.47;;
59474;SDS011;45288;51.136;16.928;2023-07-29T02:20:49;624.73;;;574.03;;
59474;SDS011;45288;51.136;16.928;2023-07-29T02:23:15;370.27;;;342.02;;
59474;SDS011;45288;51.136;16.928;2023-07-29T02:25:42;494.23;;;453.33;;
59474;SDS011;45288;51.136;16.928;2023-07-29T02:28:08;465.73;;;428.20;;
59474;SDS011;45288;51.136;16.928;2023-07-29T02:30:34;497.27;;;456.43;;
59474;SDS011;45288;51.136;16.928;2023-07-29T02:33:00;502.08;;;461.30;;
59474;SDS011;45288;51.136;16.928;2023-07-29T02:35:27;497.83;;;457.27;;
59474;SDS011;45288;51.136;16.928;2023-07-29T02:37:53;494.05;;;453.50;;
59474;SDS011;45288;51.136;16.928;2023-07-29T02:40:21;473.00;;;434.63;;
59474;SDS011;45288;51.136;16.928;2023-07-29T02:42:48;498.40;;;458.10;;
59474;SDS011;45288;51.136;16.928;2023-07-29T02:45:13;550.87;;;506.73;;
59474;SDS011;45288;51.136;16.928;2023-07-29T02:47:39;562.10;;;516.77;;
59474;SDS011;45288;51.136;16.928;2023-07-29T02:50:05;584.70;;;537.88;;
59474;SDS011;45288;51.136;16.928;2023-07-29T02:52:31;936.58;;;864.13;;
59474;SDS011;45288;51.136;16.928;2023-07-29T02:54:57;941.47;;;869.27;;
59474;SDS011;45288;51.136;16.928;2023-07-29T02:57:22;894.30;;;824.93;;
59474;SDS011;45288;51.136;16.928;2023-07-29T02:59:48;919.75;;;848.28;;
59474;SDS011;45288;51.136;16.928;2023-07-29T03:02:13;930.80;;;859.60;;
59474;SDS011;45288;51.136;16.928;2023-07-29T03:04:42;922.92;;;851.60;;
59474;SDS011;45288;51.136;16.928;2023-07-29T03:07:07;879.53;;;810.97;;
59474;SDS011;45288;51.136;16.928;2023-07-29T03:09:33;841.28;;;775.10;;
59474;SDS011;45288;51.136;16.928;2023-07-29T03:11:59;883.40;;;814.37;;
59474;SDS011;45288;51.136;16.928;2023-07-29T03:14:26;840.25;;;773.88;;
59474;SDS011;45288;51.136;16.928;2023-07-29T03:16:51;899.57;;;829.30;;
59474;SDS011;45288;51.136;16.928;2023-07-29T03:19:17;741.25;;;682.30;;
59474;SDS011;45288;51.136;16.928;2023-07-29T03:21:43;875.07;;;806.47;;
59474;SDS011;45288;51.136;16.928;2023-07-29T03:24:09;843.28;;;777.53;;
59474;SDS011;45288;51.136;16.928;2023-07-29T03:26:35;904.13;;;833.33;;
59474;SDS011;45288;51.136;16.928;2023-07-29T03:29:01;807.83;;;743.57;;
59474;SDS011;45288;51.136;16.928;2023-07-29T03:31:27;746.15;;;686.78;;
59474;SDS011;45288;51.136;16.928;2023-07-29T03:33:53;752.08;;;692.20;;
59474;SDS011;45288;51.136;16.928;2023-07-29T03:36:19;751.28;;;691.75;;
59474;SDS011;45288;51.136;16.928;2023-07-29T03:38:46;493.70;;;454.08;;
59474;SDS011;45288;51.136;16.928;2023-07-29T03:41:12;493.42;;;454.00;;
59474;SDS011;45288;51.136;16.928;2023-07-29T03:43:37;483.45;;;444.50;;
59474;SDS011;45288;51.136;16.928;2023-07-29T03:46:03;688.67;;;633.33;;
59474;SDS011;45288;51.136;16.928;2023-07-29T03:48:29;793.90;;;731.92;;
59474;SDS011;45288;51.136;16.928;2023-07-29T03:50:57;859.00;;;792.50;;
59474;SDS011;45288;51.136;16.928;2023-07-29T03:53:22;769.17;;;708.85;;
59474;SDS011;45288;51.136;16.928;2023-07-29T03:55:48;804.28;;;740.85;;
59474;SDS011;45288;51.136;16.928;2023-07-29T03:58:15;788.15;;;726.30;;
59474;SDS011;45288;51.136;16.928;2023-07-29T04:00:41;745.30;;;685.57;;
59474;SDS011;45288;51.136;16.928;2023-07-29T04:03:06;746.80;;;686.93;;
59474;SDS011;45288;51.136;16.928;2023-07-29T04:05:33;797.17;;;734.20;;
59474;SDS011;45288;51.136;16.928;2023-07-29T04:07:58;719.33;;;661.72;;
59474;SDS011;45288;51.136;16.928;2023-07-29T04:10:24;679.57;;;624.43;;
59474;SDS011;45288;51.136;16.928;2023-07-29T04:12:50;750.25;;;690.13;;
59474;SDS011;45288;51.136;16.928;2023-07-29T04:15:15;786.73;;;724.30;;
59474;SDS011;45288;51.136;16.928;2023-07-29T04:17:41;776.50;;;713.90;;
59474;SDS011;45288;51.136;16.928;2023-07-29T04:20:07;717.22;;;659.53;;
59474;SDS011;45288;51.136;16.928;2023-07-29T04:22:33;816.42;;;752.40;;
59474;SDS011;45288;51.136;16.928;2023-07-29T04:24:59;796.60;;;733.43;;
59474;SDS011;45288;51.136;16.928;2023-07-29T04:27:25;820.63;;;756.13;;
59474;SDS011;45288;51.136;16.928;2023-07-29T04:29:51;814.45;;;750.38;;
59474;SDS011;45288;51.136;16.928;2023-07-29T04:32:17;887.37;;;818.33;;
59474;SDS011;45288;51.136;16.928;2023-07-29T04:34:43;810.90;;;746.53;;
59474;SDS011;45288;51.136;16.928;2023-07-29T04:37:08;795.47;;;732.43;;
59474;SDS011;45288;51.136;16.928;2023-07-29T04:39:34;828.55;;;763.90;;
59474;SDS011;45288;51.136;16.928;2023-07-29T04:42:00;803.90;;;740.58;;
59474;SDS011;45288;51.136;16.928;2023-07-29T04:44:26;802.65;;;739.72;;
59474;SDS011;45288;51.136;16.928;2023-07-29T04:46:51;900.73;;;830.40;;
59474;SDS011;45288;51.136;16.928;2023-07-29T04:49:17;984.37;;;908.17;;
59474;SDS011;45288;51.136;16.928;2023-07-29T04:51:43;737.63;;;678.27;;
59474;SDS011;45288;51.136;16.928;2023-07-29T04:54:09;593.25;;;544.70;;
59474;SDS011;45288;51.136;16.928;2023-07-29T04:56:35;586.23;;;538.37;;
59474;SDS011;45288;51.136;16.928;2023-07-29T04:59:00;631.60;;;579.88;;
59474;SDS011;45288;51.136;16.928;2023-07-29T05:01:26;584.25;;;536.30;;
59474;SDS011;45288;51.136;16.928;2023-07-29T05:03:52;449.50;;;412.83;;
59474;SDS011;45288;51.136;16.928;2023-07-29T05:06:18;491.83;;;451.40;;
59474;SDS011;45288;51.136;16.928;2023-07-29T05:08:43;486.60;;;446.60;;
59474;SDS011;45288;51.136;16.928;2023-07-29T05:11:09;443.33;;;407.50;;
59474;SDS011;45288;51.136;16.928;2023-07-29T05:13:35;534.10;;;489.47;;
59474;SDS011;45288;51.136;16.928;2023-07-29T05:16:02;481.73;;;442.25;;
59474;SDS011;45288;51.136;16.928;2023-07-29T05:18:27;461.42;;;424.23;;
59474;SDS011;45288;51.136;16.928;2023-07-29T05:20:53;446.93;;;410.67;;
59474;SDS011;45288;51.136;16.928;2023-07-29T05:23:19;521.38;;;479.13;;
59474;SDS011;45288;51.136;16.928;2023-07-29T05:25:45;550.40;;;505.77;;
59474;SDS011;45288;51.136;16.928;2023-07-29T05:28:11;501.60;;;461.15;;
59474;SDS011;45288;51.136;16.928;2023-07-29T05:30:37;608.22;;;558.20;;
59474;SDS011;45288;51.136;16.928;2023-07-29T05:33:05;760.85;;;699.53;;
59474;SDS011;45288;51.136;16.928;2023-07-29T05:35:33;816.20;;;750.55;;
59474;SDS011;45288;51.136;16.928;2023-07-29T05:37:59;1267.00;;;999.90;;
59474;SDS011;45288;51.136;16.928;2023-07-29T05:40:24;1250.18;;;999.90;;
59474;SDS011;45288;51.136;16.928;2023-07-29T05:42:50;565.10;;;518.40;;
59474;SDS011;45288;51.136;16.928;2023-07-29T05:45:16;169.43;;;156.13;;
59474;SDS011;45288;51.136;16.928;2023-07-29T05:47:42;138.27;;;126.07;;
59474;SDS011;45288;51.136;16.928;2023-07-29T05:50:07;120.30;;;109.63;;
59474;SDS011;45288;51.136;16.928;2023-07-29T05:52:34;196.60;;;180.88;;
59474;SDS011;45288;51.136;16.928;2023-07-29T05:55:00;94.18;;;85.15;;
59474;SDS011;45288;51.136;16.928;2023-07-29T05:57:25;124.30;;;113.82;;
59474;SDS011;45288;51.136;16.928;2023-07-29T05:59:51;104.60;;;95.95;;
59474;SDS011;45288;51.136;16.928;2023-07-29T06:02:18;116.95;;;107.85;;
59474;SDS011;45288;51.136;16.928;2023-07-29T06:04:44;117.90;;;108.15;;
59474;SDS011;45288;51.136;16.928;2023-07-29T06:07:11;132.68;;;121.68;;
59474;SDS011;45288;51.136;16.928;2023-07-29T06:09:37;52.43;;;47.10;;
59474;SDS011;45288;51.136;16.928;2023-07-29T06:12:03;71.88;;;65.10;;
59474;SDS011;45288;51.136;16.928;2023-07-29T06:14:29;130.03;;;120.23;;
59474;SDS011;45288;51.136;16.928;2023-07-29T06:16:54;191.45;;;176.52;;
59474;SDS011;45288;51.136;16.928;2023-07-29T06:19:20;228.25;;;210.60;;
59474;SDS011;45288;51.136;16.928;2023-07-29T06:21:45;276.83;;;253.90;;
59474;SDS011;45288;51.136;16.928;2023-07-29T06:24:11;299.60;;;276.25;;
59474;SDS011;45288;51.136;16.928;2023-07-29T06:26:37;234.90;;;216.70;;
59474;SDS011;45288;51.136;16.928;2023-07-29T06:29:03;247.27;;;227.50;;
59474;SDS011;45288;51.136;16.928;2023-07-29T06:31:29;273.50;;;251.70;;
59474;SDS011;45288;51.136;16.928;2023-07-29T06:33:55;345.38;;;317.10;;
59474;SDS011;45288;51.136;16.928;2023-07-29T06:36:20;354.23;;;326.00;;
59474;SDS011;45288;51.136;16.928;2023-07-29T06:38:46;349.90;;;321.03;;
59474;SDS011;45288;51.136;16.928;2023-07-29T06:41:12;296.25;;;272.65;;
59474;SDS011;45288;51.136;16.928;2023-07-29T06:43:38;456.75;;;417.90;;
59474;SDS011;45288;51.136;16.928;2023-07-29T06:46:03;375.13;;;344.07;;
59474;SDS011;45288;51.136;16.928;2023-07-29T06:48:29;438.73;;;402.10;;
59474;SDS011;45288;51.136;16.928;2023-07-29T06:50:54;345.08;;;316.98;;
59474;SDS011;45288;51.136;16.928;2023-07-29T06:53:21;351.70;;;323.17;;
59474;SDS011;45288;51.136;16.928;2023-07-29T06:55:46;361.77;;;332.13;;
59474;SDS011;45288;51.136;16.928;2023-07-29T06:58:12;362.02;;;332.38;;
59474;SDS011;45288;51.136;16.928;2023-07-29T07:00:40;520.63;;;476.50;;
59474;SDS011;45288;51.136;16.928;2023-07-29T07:03:06;541.73;;;495.50;;
59474;SDS011;45288;51.136;16.928;2023-07-29T07:05:32;769.53;;;704.78;;
59474;SDS011;45288;51.136;16.928;2023-07-29T07:07:59;661.55;;;604.92;;
59474;SDS011;45288;51.136;16.928;2023-07-29T07:10:24;566.95;;;518.00;;
59474;SDS011;45288;51.136;16.928;2023-07-29T07:12:50;612.95;;;559.97;;
59474;SDS011;45288;51.136;16.928;2023-07-29T07:15:16;831.50;;;761.40;;
59474;SDS011;45288;51.136;16.928;2023-07-29T07:17:41;1103.70;;;999.90;;
59474;SDS011;45288;51.136;16.928;2023-07-29T07:20:08;1027.10;;;942.83;;
59474;SDS011;45288;51.136;16.928;2023-07-29T07:22:33;936.42;;;858.67;;
59474;SDS011;45288;51.136;16.928;2023-07-29T07:24:59;1075.13;;;988.33;;
59474;SDS011;45288;51.136;16.928;2023-07-29T07:27:25;1070.83;;;983.53;;
59474;SDS011;45288;51.136;16.928;2023-07-29T07:29:51;1194.18;;;999.90;;
59474;SDS011;45288;51.136;16.928;2023-07-29T07:32:17;912.42;;;836.45;;
59474;SDS011;45288;51.136;16.928;2023-07-29T07:34:43;1340.00;;;999.90;;
59474;SDS011;45288;51.136;16.928;2023-07-29T07:37:09;627.05;;;572.70;;
59474;SDS011;45288;51.136;16.928;2023-07-29T07:39:34;1328.47;;;999.90;;
59474;SDS011;45288;51.136;16.928;2023-07-29T07:42:00;1296.82;;;999.90;;
59474;SDS011;45288;51.136;16.928;2023-07-29T07:44:26;1327.35;;;999.90;;
59474;SDS011;45288;51.136;16.928;2023-07-29T07:46:52;431.63;;;394.03;;
59474;SDS011;45288;51.136;16.928;2023-07-29T07:49:18;393.08;;;360.42;;
59474;SDS011;45288;51.136;16.928;2023-07-29T07:51:43;433.83;;;396.27;;
59474;SDS011;45288;51.136;16.928;2023-07-29T07:54:09;439.20;;;401.35;;
59474;SDS011;45288;51.136;16.928;2023-07-29T07:56:35;468.97;;;428.37;;
59474;SDS011;45288;51.136;16.928;2023-07-29T07:59:00;430.33;;;393.47;;
59474;SDS011;45288;51.136;16.928;2023-07-29T08:01:26;503.33;;;459.70;;
59474;SDS011;45288;51.136;16.928;2023-07-29T08:03:52;535.65;;;488.52;;
59474;SDS011;45288;51.136;16.928;2023-07-29T08:06:17;809.13;;;740.70;;
59474;SDS011;45288;51.136;16.928;2023-07-29T08:08:43;682.38;;;623.20;;
59474;SDS011;45288;51.136;16.928;2023-07-29T08:11:09;793.33;;;725.08;;
59474;SDS011;45288;51.136;16.928;2023-07-29T08:13:35;528.07;;;481.27;;
59474;SDS011;45288;51.136;16.928;2023-07-29T08:16:00;505.17;;;460.80;;
59474;SDS011;45288;51.136;16.928;2023-07-29T08:18:26;589.85;;;537.90;;
59474;SDS011;45288;51.136;16.928;2023-07-29T08:20:55;990.90;;;908.17;;
59474;SDS011;45288;51.136;16.928;2023-07-29T08:23:21;798.25;;;729.05;;
59474;SDS011;45288;51.136;16.928;2023-07-29T08:25:56;804.13;;;734.93;;
59474;SDS011;45288;51.136;16.928;2023-07-29T08:28:34;802.67;;;733.65;;
59474;SDS011;45288;51.136;16.928;2023-07-29T08:31:00;801.55;;;732.55;;
59474;SDS011;45288;51.136;16.928;2023-07-29T08:33:26;770.27;;;703.80;;
59474;SDS011;45288;51.136;16.928;2023-07-29T08:35:52;879.05;;;803.60;;
59474;SDS011;45288;51.136;16.928;2023-07-29T08:38:18;912.40;;;834.83;;
59474;SDS011;45288;51.136;16.928;2023-07-29T08:40:52;1289.88;;;999.90;;
59474;SDS011;45288;51.136;16.928;2023-07-29T08:43:19;930.60;;;851.65;;
59474;SDS011;45288;51.136;16.928;2023-07-29T08:45:46;1306.25;;;999.90;;
59474;SDS011;45288;51.136;16.928;2023-07-29T08:48:11;1084.30;;;994.13;;
59474;SDS011;45288;51.136;16.928;2023-07-29T08:50:38;930.97;;;851.10;;
59474;SDS011;45288;51.136;16.928;2023-07-29T08:53:04;919.07;;;839.63;;
59474;SDS011;45288;51.136;16.928;2023-07-29T08:55:29;910.33;;;831.42;;
59474;SDS011;45288;51.136;16.928;2023-07-29T08:57:57;941.28;;;860.55;;
59474;SDS011;45288;51.136;16.928;2023-07-29T09:00:22;945.50;;;864.53;;
59474;SDS011;45288;51.136;16.928;2023-07-29T09:02:48;835.70;;;763.33;;
59474;SDS011;45288;51.136;16.928;2023-07-29T09:05:14;803.53;;;733.53;;
59474;SDS011;45288;51.136;16.928;2023-07-29T09:07:40;906.13;;;828.10;;
59474;SDS011;45288;51.136;16.928;2023-07-29T09:10:08;939.50;;;858.65;;
59474;SDS011;45288;51.136;16.928;2023-07-29T09:12:33;585.63;;;533.00;;
59474;SDS011;45288;51.136;16.928;2023-07-29T09:14:59;976.60;;;893.05;;
59474;SDS011;45288;51.136;16.928;2023-07-29T09:17:25;987.40;;;903.00;;
59474;SDS011;45288;51.136;16.928;2023-07-29T09:19:51;842.67;;;769.53;;
59474;SDS011;45288;51.136;16.928;2023-07-29T09:22:20;777.90;;;709.53;;
59474;SDS011;45288;51.136;16.928;2023-07-29T09:24:46;786.92;;;717.65;;
59474;SDS011;45288;51.136;16.928;2023-07-29T09:27:24;753.90;;;687.25;;
59474;SDS011;45288;51.136;16.928;2023-07-29T09:29:50;792.57;;;722.70;;
59474;SDS011;45288;51.136;16.928;2023-07-29T09:32:17;844.63;;;770.70;;
59474;SDS011;45288;51.136;16.928;2023-07-29T09:34:43;1029.85;;;941.40;;
59474;SDS011;45288;51.136;16.928;2023-07-29T09:37:08;930.37;;;849.60;;
59474;SDS011;45288;51.136;16.928;2023-07-29T09:39:34;947.90;;;865.97;;
59474;SDS011;45288;51.136;16.928;2023-07-29T09:42:00;957.87;;;874.87;;
59474;SDS011;45288;51.136;16.928;2023-07-29T09:44:25;980.38;;;895.40;;
59474;SDS011;45288;51.136;16.928;2023-07-29T09:46:51;861.47;;;786.40;;
59474;SDS011;45288;51.136;16.928;2023-07-29T09:49:17;863.58;;;788.00;;
59474;SDS011;45288;51.136;16.928;2023-07-29T09:51:43;905.33;;;826.40;;
59474;SDS011;45288;51.136;16.928;2023-07-29T09:54:08;801.60;;;730.93;;
59474;SDS011;45288;51.136;16.928;2023-07-29T09:56:35;797.85;;;727.58;;
59474;SDS011;45288;51.136;16.928;2023-07-29T09:59:04;879.00;;;802.45;;
59474;SDS011;45288;51.136;16.928;2023-07-29T10:01:30;884.53;;;807.63;;
59474;SDS011;45288;51.136;16.928;2023-07-29T10:03:55;996.17;;;910.47;;
59474;SDS011;45288;51.136;16.928;2023-07-29T10:06:22;1013.58;;;926.38;;
59474;SDS011;45288;51.136;16.928;2023-07-29T10:08:48;964.88;;;881.38;;
59474;SDS011;45288;51.136;16.928;2023-07-29T10:11:14;965.88;;;882.33;;
59474;SDS011;45288;51.136;16.928;2023-07-29T10:13:40;1011.70;;;924.30;;
59474;SDS011;45288;51.136;16.928;2023-07-29T10:16:07;810.42;;;738.83;;
59474;SDS011;45288;51.136;16.928;2023-07-29T10:18:33;798.38;;;728.20;;
59474;SDS011;45288;51.136;16.928;2023-07-29T10:20:59;594.63;;;540.80;;
59474;SDS011;45288;51.136;16.928;2023-07-29T10:23:26;577.53;;;525.17;;
59474;SDS011;45288;51.136;16.928;2023-07-29T10:26:02;679.65;;;618.45;;
59474;SDS011;45288;51.136;16.928;2023-07-29T10:28:32;577.83;;;525.53;;
59474;SDS011;45288;51.136;16.928;2023-07-29T10:30:58;653.88;;;595.15;;
59474;SDS011;45288;51.136;16.928;2023-07-29T10:33:26;592.63;;;539.13;;
59474;SDS011;45288;51.136;16.928;2023-07-29T10:35:52;536.40;;;487.45;;
59474;SDS011;45288;51.136;16.928;2023-07-29T10:38:19;598.25;;;544.20;;
59474;SDS011;45288;51.136;16.928;2023-07-29T10:40:46;522.83;;;475.52;;
59474;SDS011;45288;51.136;16.928;2023-07-29T10:43:12;495.58;;;450.25;;
59474;SDS011;45288;51.136;16.928;2023-07-29T10:45:40;466.83;;;424.63;;
59474;SDS011;45288;51.136;16.928;2023-07-29T10:48:08;486.50;;;442.30;;
59474;SDS011;45288;51.136;16.928;2023-07-29T10:50:35;495.47;;;450.57;;
59474;SDS011;45288;51.136;16.928;2023-07-29T10:53:02;503.08;;;456.90;;
59474;SDS011;45288;51.136;16.928;2023-07-29T10:55:29;528.73;;;480.70;;
59474;SDS011;45288;51.136;16.928;2023-07-29T11:00:44;525.60;;;477.52;;
59474;SDS011;45288;51.136;16.928;2023-07-29T11:03:10;495.15;;;449.83;;
59474;SDS011;45288;51.136;16.928;2023-07-29T11:08:18;462.53;;;420.50;;
59474;SDS011;45288;51.136;16.928;2023-07-29T11:10:56;483.73;;;439.70;;
59474;SDS011;45288;51.136;16.928;2023-07-29T11:13:22;501.97;;;456.67;;
59474;SDS011;45288;51.136;16.928;2023-07-29T11:15:48;555.83;;;504.98;;
59474;SDS011;45288;51.136;16.928;2023-07-29T11:18:15;584.15;;;530.38;;
59474;SDS011;45288;51.136;16.928;2023-07-29T11:20:41;545.90;;;495.93;;
59474;SDS011;45288;51.136;16.928;2023-07-29T11:23:06;512.57;;;465.27;;
59474;SDS011;45288;51.136;16.928;2023-07-29T11:25:32;494.67;;;449.83;;
59474;SDS011;45288;51.136;16.928;2023-07-29T11:28:01;729.90;;;664.45;;
59474;SDS011;45288;51.136;16.928;2023-07-29T11:30:27;1039.80;;;950.03;;
59474;SDS011;45288;51.136;16.928;2023-07-29T11:32:54;799.65;;;728.72;;
59474;SDS011;45288;51.136;16.928;2023-07-29T11:35:23;1217.57;;;999.90;;
59474;SDS011;45288;51.136;16.928;2023-07-29T11:37:49;1394.80;;;999.90;;
59474;SDS011;45288;51.136;16.928;2023-07-29T11:40:16;1108.13;;;999.90;;
59474;SDS011;45288;51.136;16.928;2023-07-29T11:42:42;1396.68;;;999.90;;
59474;SDS011;45288;51.136;16.928;2023-07-29T11:45:09;1364.80;;;999.90;;
59474;SDS011;45288;51.136;16.928;2023-07-29T11:47:35;460.83;;;420.33;;
59474;SDS011;45288;51.136;16.928;2023-07-29T11:50:03;898.88;;;820.45;;
59474;SDS011;45288;51.136;16.928;2023-07-29T11:52:29;1379.68;;;999.90;;
59474;SDS011;45288;51.136;16.928;2023-07-29T11:54:56;1107.40;;;999.90;;
59474;SDS011;45288;51.136;16.928;2023-07-29T11:57:22;1364.68;;;999.90;;
59474;SDS011;45288;51.136;16.928;2023-07-29T11:59:48;802.58;;;732.53;;
59474;SDS011;45288;51.136;16.928;2023-07-29T12:02:16;707.33;;;644.40;;
59474;SDS011;45288;51.136;16.928;2023-07-29T12:04:43;672.90;;;612.97;;
59474;SDS011;45288;51.136;16.928;2023-07-29T12:07:09;655.55;;;596.92;;
59474;SDS011;45288;51.136;16.928;2023-07-29T12:09:35;674.85;;;614.75;;
59474;SDS011;45288;51.136;16.928;2023-07-29T12:12:02;730.10;;;665.33;;
59474;SDS011;45288;51.136;16.928;2023-07-29T12:14:28;757.78;;;691.17;;
59474;SDS011;45288;51.136;16.928;2023-07-29T12:16:54;912.53;;;833.92;;
59474;SDS011;45288;51.136;16.928;2023-07-29T12:19:20;834.50;;;761.20;;
59474;SDS011;45288;51.136;16.928;2023-07-29T12:21:48;900.45;;;822.30;;
59474;SDS011;45288;51.136;16.928;2023-07-29T12:24:14;1367.68;;;999.90;;
59474;SDS011;45288;51.136;16.928;2023-07-29T12:26:40;817.35;;;745.70;;
59474;SDS011;45288;51.136;16.928;2023-07-29T12:29:15;620.92;;;565.03;;
59474;SDS011;45288;51.136;16.928;2023-07-29T12:31:42;352.40;;;322.02;;
59474;SDS011;45288;51.136;16.928;2023-07-29T12:34:07;769.88;;;702.40;;
59474;SDS011;45288;51.136;16.928;2023-07-29T12:36:44;758.08;;;692.10;;
59474;SDS011;45288;51.136;16.928;2023-07-29T12:39:20;827.35;;;755.13;;
59474;SDS011;45288;51.136;16.928;2023-07-29T12:41:49;1165.53;;;999.90;;
59474;SDS011;45288;51.136;16.928;2023-07-29T12:44:15;1262.03;;;999.90;;
59474;SDS011;45288;51.136;16.928;2023-07-29T12:46:41;933.23;;;854.63;;
59474;SDS011;45288;51.136;16.928;2023-07-29T12:49:07;1172.95;;;999.90;;
59474;SDS011;45288;51.136;16.928;2023-07-29T12:51:33;1328.57;;;999.90;;
59474;SDS011;45288;51.136;16.928;2023-07-29T12:53:59;1244.25;;;999.90;;
59474;SDS011;45288;51.136;16.928;2023-07-29T12:56:24;537.08;;;488.92;;
59474;SDS011;45288;51.136;16.928;2023-07-29T12:58:50;610.67;;;556.25;;
59474;SDS011;45288;51.136;16.928;2023-07-29T13:01:15;636.47;;;579.17;;
59474;SDS011;45288;51.136;16.928;2023-07-29T13:03:45;1368.30;;;999.90;;
59474;SDS011;45288;51.136;16.928;2023-07-29T13:06:10;1373.07;;;999.90;;
59474;SDS011;45288;51.136;16.928;2023-07-29T13:08:36;1367.03;;;999.90;;
59474;SDS011;45288;51.136;16.928;2023-07-29T13:11:02;1369.73;;;999.90;;
59474;SDS011;45288;51.136;16.928;2023-07-29T13:13:28;1366.35;;;999.90;;
59474;SDS011;45288;51.136;16.928;2023-07-29T13:15:54;1366.07;;;999.90;;
59474;SDS011;45288;51.136;16.928;2023-07-29T13:18:20;1363.93;;;999.90;;
59474;SDS011;45288;51.136;16.928;2023-07-29T13:20:46;1373.37;;;999.90;;
59474;SDS011;45288;51.136;16.928;2023-07-29T13:23:12;1364.18;;;999.90;;
59474;SDS011;45288;51.136;16.928;2023-07-29T13:25:38;1366.50;;;999.90;;
59474;SDS011;45288;51.136;16.928;2023-07-29T13:28:04;975.97;;;893.07;;
59474;SDS011;45288;51.136;16.928;2023-07-29T13:30:30;1362.00;;;999.90;;
59474;SDS011;45288;51.136;16.928;2023-07-29T13:32:56;1354.10;;;999.90;;
59474;SDS011;45288;51.136;16.928;2023-07-29T13:35:22;901.25;;;823.53;;
59474;SDS011;45288;51.136;16.928;2023-07-29T13:37:48;1361.78;;;999.90;;
59474;SDS011;45288;51.136;16.928;2023-07-29T13:40:14;1362.27;;;999.90;;
59474;SDS011;45288;51.136;16.928;2023-07-29T13:42:40;1367.20;;;999.90;;
59474;SDS011;45288;51.136;16.928;2023-07-29T13:45:05;1220.77;;;999.90;;
59474;SDS011;45288;51.136;16.928;2023-07-29T13:47:31;1226.38;;;999.90;;
59474;SDS011;45288;51.136;16.928;2023-07-29T13:49:57;1362.13;;;999.90;;